Time;durP1;ratioP1;P1;durP2;ratioP2;P2;SDS_P1;SDS_P2;PMS_P1;PMS_P2;Temp;Humidity;BMP_temperature;BMP_pressure;BME280_temperature;BME280_humidity;BME280_pressure;Samples;Min_cycle;Max_cycle;Signal;HPM_P1;HPM_P2
2021/07/11 00:00:32;;;;;;;9.55;6.78;;;21.80;81.50;;;;;;6243674;23;20038;-84
2021/07/11 00:02:58;;;;;;;8.57;5.95;;;21.80;81.70;;;;;;6218939;23;20103;-83
2021/07/11 00:05:26;;;;;;;7.85;6.70;;;21.80;82.00;;;;;;6193059;23;20370;-81
2021/07/11 00:07:52;;;;;;;8.63;5.95;;;21.80;82.20;;;;;;6244049;23;20001;-82
2021/07/11 00:10:18;;;;;;;8.45;6.32;;;21.80;82.40;;;;;;6244209;23;20191;-81
2021/07/11 00:12:46;;;;;;;8.43;6.30;;;21.80;82.40;;;;;;6244419;23;20004;-83
2021/07/11 00:15:15;;;;;;;6.93;5.68;;;21.70;81.80;;;;;;6248071;23;19997;-85
2021/07/11 00:17:42;;;;;;;8.25;6.00;;;21.60;81.90;;;;;;6244816;23;20007;-83
2021/07/11 00:20:10;;;;;;;7.22;6.03;;;21.60;82.20;;;;;;6246191;22;20011;-85
2021/07/11 00:22:35;;;;;;;7.35;5.65;;;21.50;82.40;;;;;;6245344;22;20335;-84
2021/07/11 00:25:01;;;;;;;7.18;5.78;;;21.40;82.60;;;;;;6244487;23;20001;-84
2021/07/11 00:27:27;;;;;;;7.20;5.85;;;21.40;82.80;;;;;;6269364;22;20008;-84
2021/07/11 00:29:53;;;;;;;8.35;6.15;;;21.30;82.90;;;;;;6219164;23;20297;-84
2021/07/11 00:32:18;;;;;;;8.38;6.43;;;21.20;83.20;;;;;;6192842;23;20323;-84
2021/07/11 00:34:44;;;;;;;9.25;6.63;;;21.10;83.40;;;;;;6218640;23;20058;-86
2021/07/11 00:37:09;;;;;;;8.68;6.45;;;21.10;83.80;;;;;;6193271;23;20019;-85
2021/07/11 00:39:35;;;;;;;8.30;7.20;;;21.10;83.90;;;;;;6218558;23;20319;-84
2021/07/11 00:42:01;;;;;;;8.82;6.90;;;21.10;84.30;;;;;;6193679;23;20104;-84
2021/07/11 00:44:26;;;;;;;10.25;7.20;;;21.00;84.40;;;;;;6218727;23;20007;-84
2021/07/11 00:46:52;;;;;;;9.05;7.57;;;21.10;84.50;;;;;;6193489;23;20307;-84
2021/07/11 00:49:18;;;;;;;9.70;7.25;;;21.00;84.60;;;;;;6245550;23;20195;-84
2021/07/11 00:51:44;;;;;;;8.68;7.15;;;21.00;84.60;;;;;;6193899;23;20011;-84
2021/07/11 00:54:10;;;;;;;9.75;7.88;;;21.00;84.80;;;;;;6193820;23;20012;-84
2021/07/11 00:56:36;;;;;;;9.68;7.85;;;21.00;85.00;;;;;;6218163;23;20335;-84
2021/07/11 00:59:02;;;;;;;9.10;7.43;;;21.10;85.30;;;;;;6194213;23;20000;-85
2021/07/11 01:01:43;;;;;;;10.95;7.53;;;21.10;85.50;;;;;;6192367;23;20038;-85
2021/07/11 01:04:37;;;;;;;10.30;7.75;;;21.10;85.80;;;;;;6243879;23;20015;-84
2021/07/11 01:07:06;;;;;;;9.68;7.63;;;21.10;86.00;;;;;;6218827;23;20069;-85
2021/07/11 01:09:41;;;;;;;9.43;8.02;;;21.10;85.80;;;;;;6218252;23;20027;-84
2021/07/11 01:12:21;;;;;;;10.07;8.30;;;21.10;86.00;;;;;;6218662;23;20027;-85
2021/07/11 01:14:50;;;;;;;9.87;7.77;;;21.10;85.90;;;;;;6218702;23;20475;-84
2021/07/11 01:17:19;;;;;;;9.77;7.95;;;21.10;85.90;;;;;;6218533;23;20503;-84
2021/07/11 01:20:23;;;;;;;9.23;7.70;;;21.10;85.80;;;;;;6243625;23;20000;-84
2021/07/11 01:22:54;;;;;;;8.93;7.20;;;21.00;85.80;;;;;;6218217;23;20358;-84
2021/07/11 01:25:38;;;;;;;;;;;21.00;85.90;;;;;;6218150;23;20000;-84
2021/07/11 01:28:07;;;;;;;9.80;7.10;;;21.00;86.70;;;;;;6218609;23;19907;-84
2021/07/11 01:30:35;;;;;;;8.52;7.63;;;20.90;86.30;;;;;;6244692;23;20030;-84
2021/07/11 01:33:02;;;;;;;9.70;8.40;;;20.90;86.30;;;;;;6229722;23;20016;-84
2021/07/11 01:35:29;;;;;;;10.18;8.00;;;20.90;86.40;;;;;;6242526;23;20114;-84
2021/07/11 01:37:56;;;;;;;9.73;7.88;;;20.90;86.50;;;;;;6218377;23;20011;-82
2021/07/11 01:40:23;;;;;;;11.38;8.07;;;20.90;86.50;;;;;;6244412;22;20047;-84
2021/07/11 01:42:51;;;;;;;9.73;7.88;;;20.90;86.50;;;;;;6193362;23;20081;-83
2021/07/11 01:45:17;;;;;;;9.70;7.65;;;20.80;86.40;;;;;;6218686;23;20015;-84
2021/07/11 01:47:43;;;;;;;10.00;8.10;;;20.80;86.40;;;;;;6218416;23;20026;-86
2021/07/11 01:50:11;;;;;;;10.77;8.13;;;20.80;86.60;;;;;;6244022;23;20000;-85
2021/07/11 01:52:37;;;;;;;9.60;8.13;;;20.80;86.60;;;;;;6244314;23;20019;-84
2021/07/11 01:55:07;;;;;;;9.75;7.85;;;20.90;86.80;;;;;;6244795;23;20004;-84
2021/07/11 01:57:33;;;;;;;11.18;8.90;;;20.80;86.90;;;;;;6218973;23;20004;-84
2021/07/11 01:59:58;;;;;;;9.80;8.05;;;20.80;86.90;;;;;;6218641;23;20004;-85
2021/07/11 02:02:24;;;;;;;9.93;7.65;;;20.80;87.10;;;;;;6243756;23;20532;-84
2021/07/11 02:04:50;;;;;;;12.38;8.57;;;20.90;87.30;;;;;;6219057;23;20010;-84
2021/07/11 02:07:15;;;;;;;10.55;8.35;;;20.90;87.40;;;;;;6269953;22;20319;-84
2021/07/11 02:09:41;;;;;;;13.30;8.88;;;20.90;87.40;;;;;;6221239;23;20003;-84
2021/07/11 02:12:08;;;;;;;9.68;7.80;;;20.90;87.40;;;;;;6250450;23;20001;-84
2021/07/11 02:14:37;;;;;;;10.50;8.30;;;20.90;87.50;;;;;;6253759;22;20023;-85
2021/07/11 02:17:14;;;;;;;9.32;7.90;;;20.80;87.60;;;;;;6268854;23;20027;-85
2021/07/11 02:19:40;;;;;;;9.82;8.40;;;20.80;87.60;;;;;;6267411;23;20011;-85
2021/07/11 02:22:08;;;;;;;9.73;7.63;;;20.80;87.70;;;;;;6240055;23;20058;-85
2021/07/11 02:24:40;;;;;;;10.02;7.72;;;20.80;87.80;;;;;;6266430;23;20008;-86
2021/07/11 02:27:07;;;;;;;9.40;7.93;;;20.80;87.90;;;;;;6263982;23;20012;-83
2021/07/11 02:29:38;;;;;;;11.25;8.02;;;20.80;88.00;;;;;;6261463;23;20011;-85
2021/07/11 02:32:08;;;;;;;10.93;8.25;;;20.80;88.10;;;;;;6255808;22;20016;-84
2021/07/11 02:34:34;;;;;;;9.98;7.93;;;20.80;88.20;;;;;;6227332;23;20047;-84
2021/07/11 02:37:02;;;;;;;9.52;7.80;;;20.70;88.20;;;;;;6254293;23;20011;-83
2021/07/11 02:39:28;;;;;;;10.05;8.35;;;20.70;88.20;;;;;;6252743;23;20004;-83
2021/07/11 02:41:59;;;;;;;9.40;8.13;;;20.70;88.40;;;;;;6252275;23;20087;-83
2021/07/11 02:44:25;;;;;;;9.93;8.40;;;20.70;88.50;;;;;;6251901;23;20026;-85
2021/07/11 02:47:31;;;;;;;10.57;7.97;;;20.70;88.60;;;;;;6251272;23;20011;-84
2021/07/11 02:50:03;;;;;;;9.88;8.05;;;20.70;88.80;;;;;;6203731;23;20000;-83
2021/07/11 02:52:31;;;;;;;9.93;7.68;;;20.70;88.70;;;;;;6254361;23;20000;-84
2021/07/11 02:55:11;;;;;;;9.00;7.82;;;20.70;88.80;;;;;;6253475;23;20000;-82
2021/07/11 02:57:38;;;;;;;10.15;8.50;;;20.60;88.90;;;;;;6250744;23;20015;-83
2021/07/11 03:00:08;;;;;;;9.25;8.18;;;20.60;89.00;;;;;;6247183;23;20004;-84
2021/07/11 03:02:35;;;;;;;9.88;7.65;;;20.60;89.10;;;;;;6246264;23;20407;-84
2021/07/11 03:05:02;;;;;;;11.02;8.05;;;20.60;89.20;;;;;;6245465;23;20004;-84
2021/07/11 03:07:29;;;;;;;9.60;7.75;;;20.60;89.00;;;;;;6245753;23;20094;-84
2021/07/11 03:09:54;;;;;;;8.65;7.13;;;20.60;89.00;;;;;;6219169;23;20446;-84
2021/07/11 03:12:21;;;;;;;11.45;7.80;;;20.50;89.10;;;;;;6195949;23;20005;-85
2021/07/11 03:14:49;;;;;;;9.43;7.38;;;20.50;89.30;;;;;;6219684;23;20036;-84
2021/07/11 03:17:19;;;;;;;11.05;8.38;;;20.50;89.50;;;;;;6219625;23;20004;-84
2021/07/11 03:19:46;;;;;;;10.20;7.68;;;20.50;89.70;;;;;;6244638;23;20020;-84
2021/07/11 03:22:15;;;;;;;10.15;8.48;;;20.50;89.80;;;;;;6247274;23;20044;-83
2021/07/11 03:24:40;;;;;;;10.15;8.20;;;20.50;90.00;;;;;;6251362;23;20027;-82
2021/07/11 03:27:07;;;;;;;12.02;8.85;;;20.50;90.00;;;;;;6253946;23;20431;-82
2021/07/11 03:30:04;;;;;;;12.48;9.15;;;20.50;90.20;;;;;;6234155;23;20031;-83
2021/07/11 03:32:53;;;;;;;11.68;9.73;;;20.40;90.60;;;;;;6262427;22;19996;-85
2021/07/11 03:35:27;;;;;;;11.68;10.02;;;20.50;90.60;;;;;;6266474;23;19996;-85
2021/07/11 03:37:56;;;;;;;12.45;10.73;;;20.50;90.80;;;;;;6240444;23;20031;-85
2021/07/11 03:40:26;;;;;;;13.43;11.07;;;20.50;90.90;;;;;;6267154;23;20007;-84
2021/07/11 03:42:55;;;;;;;14.70;11.60;;;20.40;91.00;;;;;;6243479;23;20011;-86
2021/07/11 03:45:22;;;;;;;14.35;11.48;;;20.40;91.10;;;;;;6241235;23;20015;-84
2021/07/11 03:47:57;;;;;;;16.20;11.57;;;20.40;91.30;;;;;;6206250;23;20030;-84
2021/07/11 03:50:25;;;;;;;14.50;11.55;;;20.40;91.50;;;;;;6233089;23;20327;-84
2021/07/11 03:52:58;;;;;;;14.90;11.70;;;20.40;91.60;;;;;;6201657;23;20377;-85
2021/07/11 03:55:24;;;;;;;14.90;12.10;;;20.40;91.70;;;;;;6219660;23;20000;-84
2021/07/11 03:57:52;;;;;;;15.02;12.60;;;20.40;91.70;;;;;;6220765;23;20477;-84
2021/07/11 04:00:20;;;;;;;14.63;11.85;;;20.40;91.90;;;;;;6246576;23;20004;-83
2021/07/11 04:02:48;;;;;;;14.30;12.70;;;20.40;92.00;;;;;;6219727;23;20000;-85
2021/07/11 04:05:20;;;;;;;16.40;13.30;;;20.40;92.00;;;;;;6220148;23;20012;-84
2021/07/11 04:07:49;;;;;;;15.23;12.57;;;20.30;92.20;;;;;;6219898;23;20008;-84
2021/07/11 04:10:17;;;;;;;15.52;13.13;;;20.40;92.30;;;;;;6246327;23;20466;-84
2021/07/11 04:12:42;;;;;;;14.98;13.02;;;20.30;92.30;;;;;;6219049;23;20075;-84
2021/07/11 04:15:09;;;;;;;15.30;13.20;;;20.40;92.40;;;;;;6194797;23;20038;-85
2021/07/11 04:17:37;;;;;;;15.18;13.45;;;20.30;92.50;;;;;;6194527;23;20452;-84
2021/07/11 04:20:04;;;;;;;15.18;13.52;;;20.30;92.50;;;;;;6219693;23;20346;-84
2021/07/11 04:22:32;;;;;;;14.57;12.70;;;20.30;92.60;;;;;;6219866;23;20004;-84
2021/07/11 04:24:58;;;;;;;16.17;14.15;;;20.30;92.70;;;;;;6219218;23;20438;-84
2021/07/11 04:27:26;;;;;;;15.05;13.45;;;20.30;92.80;;;;;;6193796;23;20015;-85
2021/07/11 04:29:53;;;;;;;15.27;13.65;;;20.30;92.80;;;;;;6194128;23;20034;-84
2021/07/11 04:32:19;;;;;;;17.55;14.23;;;20.30;92.90;;;;;;6218859;22;20000;-84
2021/07/11 04:34:45;;;;;;;17.35;14.43;;;20.30;93.00;;;;;;6242346;23;20314;-85
2021/07/11 04:37:14;;;;;;;17.20;14.18;;;20.30;93.00;;;;;;6269182;22;20032;-83
2021/07/11 04:39:40;;;;;;;15.63;13.95;;;20.30;93.00;;;;;;6194629;23;20005;-84
2021/07/11 04:42:06;;;;;;;15.02;12.80;;;20.30;93.10;;;;;;6269866;22;20000;-83
2021/07/11 04:44:32;;;;;;;15.80;13.23;;;20.30;93.10;;;;;;6244227;23;20004;-83
2021/07/11 04:46:57;;;;;;;14.02;12.35;;;20.30;93.20;;;;;;6218747;23;20334;-84
2021/07/11 04:49:24;;;;;;;15.63;13.18;;;20.30;93.30;;;;;;6218706;23;20008;-84
2021/07/11 04:51:54;;;;;;;13.85;12.07;;;20.30;93.30;;;;;;6243500;23;20010;-83
2021/07/11 04:54:20;;;;;;;14.73;12.37;;;20.20;93.30;;;;;;6245910;22;20071;-84
2021/07/11 04:56:48;;;;;;;13.93;12.13;;;20.30;93.30;;;;;;6269352;22;20058;-84
2021/07/11 04:59:13;;;;;;;14.15;12.45;;;20.20;93.40;;;;;;6244480;23;19996;-84
2021/07/11 05:01:39;;;;;;;14.73;12.68;;;20.20;93.40;;;;;;6269686;22;20015;-85
2021/07/11 05:04:05;;;;;;;17.58;12.88;;;20.20;93.40;;;;;;6244253;23;20445;-84
2021/07/11 05:06:30;;;;;;;14.50;12.93;;;20.20;93.50;;;;;;6218901;23;20055;-83
2021/07/11 05:08:56;;;;;;;15.68;13.85;;;20.20;93.50;;;;;;6219083;23;20005;-84
2021/07/11 05:11:25;;;;;;;16.15;13.23;;;20.20;93.90;;;;;;6243650;22;20019;-84
2021/07/11 05:13:53;;;;;;;15.27;13.52;;;20.20;93.70;;;;;;6244104;23;19996;-83
2021/07/11 05:16:18;;;;;;;17.90;13.45;;;20.20;93.70;;;;;;6269508;22;20011;-84
2021/07/11 05:18:44;;;;;;;16.70;13.05;;;20.20;93.70;;;;;;6243851;23;20327;-84
2021/07/11 05:21:10;;;;;;;16.35;12.75;;;20.10;93.80;;;;;;6245466;22;20434;-83
2021/07/11 05:23:43;;;;;;;16.13;13.68;;;20.10;93.80;;;;;;6269882;22;20011;-84
2021/07/11 05:26:08;;;;;;;17.55;13.48;;;20.10;93.80;;;;;;6269416;22;20023;-84
2021/07/11 05:28:34;;;;;;;16.13;13.50;;;20.10;93.90;;;;;;6269541;22;20005;-84
2021/07/11 05:31:00;;;;;;;15.10;13.18;;;20.10;93.90;;;;;;6244872;22;20035;-83
2021/07/11 05:33:25;;;;;;;15.63;13.43;;;20.10;93.90;;;;;;6237135;23;20012;-84
2021/07/11 05:35:51;;;;;;;14.02;12.52;;;20.10;94.00;;;;;;6194600;23;20050;-84
2021/07/11 05:38:17;;;;;;;15.77;13.60;;;20.10;94.00;;;;;;6219604;23;20430;-83
2021/07/11 05:40:43;;;;;;;16.77;13.23;;;20.10;94.10;;;;;;6221637;23;20000;-84
2021/07/11 05:43:09;;;;;;;14.38;12.85;;;20.10;94.10;;;;;;6195748;23;20087;-84
2021/07/11 05:45:34;;;;;;;17.15;13.82;;;20.10;94.10;;;;;;6195881;23;20012;-85
2021/07/11 05:48:00;;;;;;;15.07;13.35;;;20.10;94.20;;;;;;6196291;23;20387;-85
2021/07/11 05:50:26;;;;;;;15.18;13.43;;;20.10;94.20;;;;;;6196488;23;20008;-86
2021/07/11 05:52:53;;;;;;;15.73;13.75;;;20.10;94.20;;;;;;6202601;23;20024;-86
2021/07/11 05:55:19;;;;;;;16.40;14.40;;;20.10;94.30;;;;;;6241229;23;20014;-84
2021/07/11 05:57:45;;;;;;;17.67;14.93;;;20.10;94.30;;;;;;6244644;23;20000;-86
2021/07/11 06:00:11;;;;;;;14.85;13.32;;;20.10;94.30;;;;;;6223700;23;19988;-87
2021/07/11 06:02:39;;;;;;;19.35;14.93;;;20.10;94.40;;;;;;6245756;23;20011;-85
2021/07/11 06:05:05;;;;;;;17.70;15.30;;;20.10;94.40;;;;;;6240624;23;20011;-85
2021/07/11 06:07:31;;;;;;;17.70;15.13;;;20.10;94.50;;;;;;6243561;23;19992;-85
2021/07/11 06:09:59;;;;;;;17.27;14.15;;;20.10;94.50;;;;;;6217262;23;20031;-87
2021/07/11 06:12:25;;;;;;;17.23;14.95;;;20.10;94.50;;;;;;6223907;23;20031;-85
2021/07/11 06:14:51;;;;;;;16.85;15.02;;;20.10;94.60;;;;;;6247857;23;20384;-85
2021/07/11 06:17:17;;;;;;;18.92;16.00;;;20.10;94.60;;;;;;6196636;23;20435;-85
2021/07/11 06:19:43;;;;;;;18.30;15.63;;;20.10;94.70;;;;;;6220766;23;20076;-87
2021/07/11 06:22:09;;;;;;;16.92;15.13;;;20.10;94.70;;;;;;6196526;23;20008;-85
2021/07/11 06:24:34;;;;;;;19.48;16.00;;;20.10;94.80;;;;;;6221090;23;20419;-86
2021/07/11 06:27:02;;;;;;;16.92;15.13;;;20.10;94.80;;;;;;6220480;23;20118;-85
2021/07/11 06:29:28;;;;;;;17.83;15.73;;;20.10;94.80;;;;;;6196780;23;20008;-83
2021/07/11 06:31:57;;;;;;;16.95;14.55;;;20.10;94.90;;;;;;6220552;23;20440;-85
2021/07/11 06:34:22;;;;;;;19.08;15.77;;;20.10;94.90;;;;;;6220802;23;20008;-84
2021/07/11 06:36:48;;;;;;;17.08;15.27;;;20.10;94.90;;;;;;6246394;23;20011;-84
2021/07/11 06:39:14;;;;;;;17.20;14.95;;;20.10;95.20;;;;;;6221781;23;20419;-85
2021/07/11 06:41:39;;;;;;;19.25;16.48;;;20.10;95.00;;;;;;6221227;23;20000;-85
2021/07/11 06:44:05;;;;;;;18.50;15.95;;;20.10;95.00;;;;;;6247450;23;20083;-86
2021/07/11 06:46:34;;;;;;;21.23;18.92;;;20.10;94.90;;;;;;6217717;23;20335;-86
2021/07/11 06:49:00;;;;;;;22.05;19.00;;;20.00;95.00;;;;;;6195269;23;20011;-85
2021/07/11 06:51:26;;;;;;;22.35;19.35;;;20.00;94.90;;;;;;6245982;23;19996;-86
2021/07/11 06:53:54;;;;;;;26.83;19.60;;;19.90;95.00;;;;;;6218524;23;20000;-86
2021/07/11 06:56:19;;;;;;;20.77;18.52;;;19.90;95.10;;;;;;6244521;23;20058;-87
2021/07/11 06:58:48;;;;;;;23.95;19.60;;;19.80;95.10;;;;;;6244349;23;20004;-86
2021/07/11 07:01:14;;;;;;;23.98;19.23;;;19.80;95.20;;;;;;6195662;23;20005;-86
2021/07/11 07:03:42;;;;;;;21.33;17.83;;;19.80;95.30;;;;;;6220090;23;20441;-87
2021/07/11 07:06:08;;;;;;;20.15;17.70;;;19.80;95.30;;;;;;6247759;23;20019;-85
2021/07/11 07:08:34;;;;;;;21.23;18.80;;;19.80;95.40;;;;;;6220263;23;20046;-86
2021/07/11 07:10:59;;;;;;;23.45;19.65;;;19.80;95.50;;;;;;6222697;23;20000;-86
2021/07/11 07:13:25;;;;;;;22.13;16.48;;;19.80;95.50;;;;;;6244430;23;20474;-85
2021/07/11 07:15:51;;;;;;;20.88;16.90;;;19.80;95.40;;;;;;6244374;23;20008;-87
2021/07/11 07:18:16;;;;;;;22.33;18.30;;;19.90;95.50;;;;;;6221165;23;20295;-85
2021/07/11 07:20:42;;;;;;;21.98;18.90;;;19.90;95.60;;;;;;6245809;23;20046;-86
2021/07/11 07:23:08;;;;;;;20.45;17.70;;;19.90;95.60;;;;;;6244391;23;20099;-85
2021/07/11 07:25:34;;;;;;;24.40;21.52;;;20.00;95.60;;;;;;6243801;23;20023;-85
2021/07/11 07:28:00;;;;;;;23.45;20.50;;;20.00;95.50;;;;;;6218194;23;20019;-85
2021/07/11 07:30:25;;;;;;;22.33;19.10;;;20.00;95.40;;;;;;6243606;23;20361;-86
2021/07/11 07:32:51;;;;;;;22.27;18.63;;;20.10;95.40;;;;;;6218086;22;20442;-84
2021/07/11 07:35:19;;;;;;;22.38;17.85;;;20.10;95.20;;;;;;6218560;23;20323;-84
2021/07/11 07:37:46;;;;;;;21.67;18.50;;;20.20;95.40;;;;;;6193522;23;20008;-86
2021/07/11 07:40:17;;;;;;;23.90;19.65;;;20.30;95.50;;;;;;6218294;23;20435;-85
2021/07/11 07:42:54;;;;;;;24.42;20.67;;;20.40;95.30;;;;;;6194426;23;20031;-85
2021/07/11 07:45:20;;;;;;;24.65;21.45;;;20.40;95.10;;;;;;6245297;23;20000;-85
2021/07/11 07:47:50;;;;;;;25.02;22.27;;;20.50;94.90;;;;;;6218509;23;20008;-84
2021/07/11 07:50:19;;;;;;;24.17;21.33;;;20.60;95.00;;;;;;6218627;23;20069;-86
2021/07/11 07:52:45;;;;;;;25.80;22.83;;;20.70;95.20;;;;;;6218287;23;20347;-86
2021/07/11 07:55:13;;;;;;;26.52;23.08;;;20.70;94.90;;;;;;6245575;23;19996;-85
2021/07/11 07:57:39;;;;;;;26.23;22.17;;;20.70;94.50;;;;;;6218090;23;20303;-86
2021/07/11 08:00:11;;;;;;;23.70;20.02;;;20.70;93.60;;;;;;6218176;23;20003;-86
2021/07/11 08:02:38;;;;;;;22.67;19.83;;;20.70;93.80;;;;;;6218312;23;20041;-85
2021/07/11 08:05:07;;;;;;;23.92;20.80;;;20.70;94.00;;;;;;6217893;23;20083;-85
2021/07/11 08:07:33;;;;;;;22.67;20.00;;;20.70;94.00;;;;;;6193918;23;20012;-86
2021/07/11 08:09:58;;;;;;;23.92;21.23;;;20.70;94.00;;;;;;6218512;23;20069;-85
2021/07/11 08:12:24;;;;;;;23.55;20.80;;;20.70;93.90;;;;;;6219616;23;20003;-86
2021/07/11 08:14:50;;;;;;;21.05;18.77;;;20.70;94.10;;;;;;6193393;23;20008;-85
2021/07/11 08:17:16;;;;;;;24.20;21.15;;;20.70;93.70;;;;;;6217987;23;20034;-85
2021/07/11 08:19:41;;;;;;;24.38;20.58;;;20.70;93.60;;;;;;6217932;23;20043;-86
2021/07/11 08:22:07;;;;;;;24.10;21.10;;;20.70;93.50;;;;;;6192786;23;20016;-85
2021/07/11 08:24:33;;;;;;;23.15;20.65;;;20.70;93.50;;;;;;6193307;23;20027;-86
2021/07/11 08:26:59;;;;;;;24.55;21.30;;;20.70;93.50;;;;;;6218233;23;20008;-86
2021/07/11 08:29:25;;;;;;;25.58;21.90;;;20.60;93.30;;;;;;6192022;23;20004;-85
2021/07/11 08:31:50;;;;;;;26.38;21.45;;;20.70;93.30;;;;;;6192472;23;20031;-85
2021/07/11 08:34:17;;;;;;;26.17;21.67;;;20.70;93.30;;;;;;6218536;23;20039;-85
2021/07/11 08:36:43;;;;;;;21.23;18.83;;;20.70;93.20;;;;;;6218140;23;20411;-85
2021/07/11 08:39:09;;;;;;;22.65;19.33;;;20.60;93.40;;;;;;6167960;23;20000;-86
2021/07/11 08:41:36;;;;;;;24.15;20.10;;;20.70;93.40;;;;;;6192897;23;20054;-86
2021/07/11 08:44:02;;;;;;;20.27;17.45;;;20.70;93.30;;;;;;6217421;23;20008;-85
2021/07/11 08:46:29;;;;;;;19.73;16.55;;;20.70;93.40;;;;;;6217916;23;20081;-84
2021/07/11 08:48:54;;;;;;;20.42;16.85;;;20.80;93.50;;;;;;6217639;23;20036;-87
2021/07/11 08:51:20;;;;;;;21.17;17.25;;;20.80;93.50;;;;;;6217827;23;20008;-85
2021/07/11 08:53:48;;;;;;;18.00;15.95;;;20.90;93.50;;;;;;6246214;23;20109;-85
2021/07/11 08:56:19;;;;;;;22.00;16.02;;;20.90;93.60;;;;;;6220173;23;20419;-85
2021/07/11 08:58:55;;;;;;;20.30;15.73;;;21.00;93.60;;;;;;6218184;23;20011;-86
2021/07/11 09:01:24;;;;;;;19.52;15.52;;;21.00;93.60;;;;;;6245318;23;20381;-86
2021/07/11 09:04:06;;;;;;;18.25;15.02;;;21.10;93.60;;;;;;6193700;23;20004;-85
2021/07/11 09:06:45;;;;;;;18.35;15.07;;;21.20;93.70;;;;;;6218693;23;20015;-85
2021/07/11 09:09:28;;;;;;;18.60;15.80;;;21.30;93.70;;;;;;6246148;23;20452;-83
2021/07/11 09:12:06;;;;;;;17.95;14.93;;;21.30;93.50;;;;;;6219521;23;19996;-83
2021/07/11 09:14:37;;;;;;;20.20;15.93;;;21.40;93.40;;;;;;6194887;23;20053;-83
2021/07/11 09:17:05;;;;;;;17.00;14.02;;;21.40;93.30;;;;;;6217323;23;20004;-82
2021/07/11 09:19:38;;;;;;;19.38;15.30;;;21.50;93.30;;;;;;6220834;23;19996;-83
2021/07/11 09:22:10;;;;;;;17.92;15.32;;;21.50;93.20;;;;;;6247993;23;20007;-82
2021/07/11 09:24:45;;;;;;;18.42;15.32;;;21.60;93.00;;;;;;6220699;23;20004;-89
2021/07/11 09:27:13;;;;;;;17.55;14.43;;;21.60;92.40;;;;;;6220922;23;20092;-83
2021/07/11 09:29:41;;;;;;;15.75;12.52;;;21.60;92.40;;;;;;6220502;23;20015;-80
2021/07/11 09:32:09;;;;;;;16.88;14.27;;;21.60;92.60;;;;;;6221339;23;20061;-80
2021/07/11 09:34:39;;;;;;;14.55;12.93;;;21.70;92.20;;;;;;6219348;23;20020;-82
2021/07/11 09:37:15;;;;;;;12.98;11.07;;;21.70;92.20;;;;;;6225543;23;20096;-81
2021/07/11 09:39:50;;;;;;;14.98;12.57;;;21.80;92.40;;;;;;6251544;23;19996;-82
2021/07/11 09:42:28;;;;;;;17.58;13.20;;;21.80;92.40;;;;;;6254649;23;20014;-82
2021/07/11 09:44:55;;;;;;;15.43;12.10;;;21.90;92.20;;;;;;6228565;23;20062;-82
2021/07/11 09:47:24;;;;;;;14.52;11.55;;;21.90;92.10;;;;;;6246664;23;20046;-83
2021/07/11 09:50:03;;;;;;;13.68;11.40;;;22.00;92.20;;;;;;6226315;23;20004;-82
2021/07/11 09:52:31;;;;;;;13.30;10.25;;;22.10;92.30;;;;;;6254220;23;20008;-82
2021/07/11 09:55:06;;;;;;;12.93;10.48;;;22.20;92.50;;;;;;6223275;23;20000;-81
2021/07/11 09:57:54;;;;;;;12.38;9.88;;;22.20;92.30;;;;;;6271336;22;20004;-80
2021/07/11 10:00:32;;;;;;;11.98;10.02;;;22.30;92.60;;;;;;6243895;23;20004;-81
2021/07/11 10:03:05;;;;;;;13.40;11.38;;;22.40;92.60;;;;;;6245698;23;20039;-82
2021/07/11 10:05:32;;;;;;;12.57;10.02;;;22.50;92.50;;;;;;6220206;23;20004;-83
2021/07/11 10:07:59;;;;;;;12.68;10.00;;;22.50;92.40;;;;;;6246021;23;20034;-84
2021/07/11 10:10:49;;;;;;;12.45;10.55;;;22.60;92.40;;;;;;6220413;23;20004;-89
2021/07/11 10:13:16;;;;;;;13.82;10.35;;;22.70;92.30;;;;;;6246341;22;20012;-84
2021/07/11 10:15:42;;;;;;;17.02;13.07;;;22.70;92.20;;;;;;6246185;22;20327;-85
2021/07/11 10:18:11;;;;;;;16.63;13.35;;;22.80;91.20;;;;;;6246749;23;20095;-84
2021/07/11 10:20:38;;;;;;;16.70;13.07;;;22.70;90.70;;;;;;6246191;23;20047;-84
2021/07/11 10:23:06;;;;;;;12.77;11.23;;;22.70;90.60;;;;;;6247002;23;20464;-85
2021/07/11 10:25:33;;;;;;;13.90;11.60;;;22.60;90.60;;;;;;6246226;23;20000;-85
2021/07/11 10:28:15;;;;;;;12.02;9.93;;;22.60;90.90;;;;;;6246234;23;20095;-84
2021/07/11 10:30:46;;;;;;;12.05;9.95;;;22.60;91.10;;;;;;6220581;23;20015;-85
2021/07/11 10:33:23;;;;;;;11.27;9.23;;;22.70;91.20;;;;;;6218803;23;20016;-85
2021/07/11 10:35:58;;;;;;;12.15;10.25;;;22.70;91.00;;;;;;6244313;23;20008;-85
2021/07/11 10:38:36;;;;;;;11.35;9.35;;;22.70;90.00;;;;;;6244253;23;20022;-84
2021/07/11 10:41:19;;;;;;;11.68;9.68;;;22.70;90.20;;;;;;6246340;22;20010;-85
2021/07/11 10:44:00;;;;;;;12.43;10.63;;;22.70;90.00;;;;;;6244542;23;20027;-85
2021/07/11 10:46:41;;;;;;;14.18;10.63;;;22.70;89.00;;;;;;6244319;23;20096;-84
2021/07/11 10:49:23;;;;;;;11.20;8.93;;;22.70;89.00;;;;;;6220097;23;20001;-85
2021/07/11 10:52:03;;;;;;;10.38;7.93;;;22.70;89.70;;;;;;6246252;22;20004;-83
2021/07/11 10:54:29;;;;;;;10.40;8.37;;;22.70;90.00;;;;;;6244424;23;20079;-83
2021/07/11 10:56:58;;;;;;;12.10;9.85;;;22.80;90.20;;;;;;6244205;23;20282;-84
2021/07/11 10:59:32;;;;;;;14.68;12.25;;;22.90;90.30;;;;;;6244302;23;20030;-83
2021/07/11 11:01:59;;;;;;;12.00;9.98;;;22.90;90.00;;;;;;6245916;22;19997;-82
2021/07/11 11:04:25;;;;;;;11.90;10.43;;;22.90;90.10;;;;;;6243825;23;20013;-83
2021/07/11 11:06:52;;;;;;;12.95;11.02;;;23.00;90.40;;;;;;6244194;23;20008;-83
2021/07/11 11:09:38;;;;;;;10.68;9.00;;;23.10;90.40;;;;;;6244298;22;20081;-84
2021/07/11 11:12:27;;;;;;;10.05;8.32;;;23.10;90.40;;;;;;6243862;23;20605;-84
2021/07/11 11:15:12;;;;;;;12.00;9.13;;;23.20;90.50;;;;;;6244282;23;20079;-85
2021/07/11 11:17:38;;;;;;;10.23;9.10;;;23.30;90.60;;;;;;6244143;23;20011;-86
2021/07/11 11:20:07;;;;;;;10.73;8.73;;;23.30;90.50;;;;;;6219360;23;20008;-84
2021/07/11 11:22:34;;;;;;;11.13;9.05;;;23.40;90.50;;;;;;6245415;22;20004;-84
2021/07/11 11:25:00;;;;;;;10.73;8.57;;;23.50;90.50;;;;;;6244518;23;20024;-84
2021/07/11 11:27:38;;;;;;;10.93;9.45;;;23.60;90.40;;;;;;6243868;23;20332;-85
2021/07/11 11:30:12;;;;;;;11.65;9.82;;;23.70;90.10;;;;;;6220761;23;20008;-84
2021/07/11 11:32:38;;;;;;;13.27;11.10;;;23.80;90.00;;;;;;6245968;22;19996;-86
2021/07/11 11:35:05;;;;;;;12.20;9.07;;;23.80;88.00;;;;;;6246034;23;20004;-85
2021/07/11 11:38:15;;;;;;;;;;;;;;;;;;;;;
2021/07/11 11:40:41;;;;;;;13.63;10.93;;;23.90;85.70;;;;;;6221988;23;20079;-82
2021/07/11 11:43:07;;;;;;;12.02;10.27;;;23.90;85.50;;;;;;6192242;23;20035;-82
2021/07/11 11:45:35;;;;;;;11.73;8.90;;;23.90;85.60;;;;;;6192309;23;20047;-84
2021/07/11 11:48:05;;;;;;;11.23;9.90;;;23.90;86.10;;;;;;6244818;23;20042;-85
2021/07/11 11:50:32;;;;;;;11.20;10.00;;;24.00;86.10;;;;;;6217746;23;20056;-85
2021/07/11 11:53:03;;;;;;;11.93;10.15;;;24.00;85.40;;;;;;6244413;23;20084;-83
2021/07/11 11:55:29;;;;;;;10.15;9.05;;;24.10;85.10;;;;;;6217360;23;20481;-83
2021/07/11 11:58:00;;;;;;;10.15;8.10;;;24.10;84.20;;;;;;6218000;23;20014;-85
2021/07/11 12:00:26;;;;;;;10.20;8.93;;;24.10;83.70;;;;;;6193375;23;20055;-84
2021/07/11 12:02:58;;;;;;;9.90;7.82;;;24.00;82.10;;;;;;6217493;23;20094;-84
2021/07/11 12:05:31;;;;;;;10.88;8.75;;;24.00;82.90;;;;;;6217450;23;20000;-84
2021/07/11 12:07:58;;;;;;;9.98;8.18;;;24.00;82.10;;;;;;6218159;23;20083;-85
2021/07/11 12:10:25;;;;;;;10.27;8.60;;;24.10;83.00;;;;;;6217807;23;20039;-83
2021/07/11 12:12:59;;;;;;;11.88;10.05;;;24.10;82.90;;;;;;6218314;23;20004;-83
2021/07/11 12:15:30;;;;;;;9.23;8.30;;;24.10;81.70;;;;;;6217730;23;20059;-83
2021/07/11 12:18:01;;;;;;;10.57;8.85;;;24.20;82.10;;;;;;6217901;23;20057;-83
2021/07/11 12:20:27;;;;;;;10.55;9.43;;;24.20;82.10;;;;;;6242644;23;19996;-83
2021/07/11 12:22:53;;;;;;;10.68;8.95;;;24.20;81.50;;;;;;6191263;23;20000;-82
2021/07/11 12:25:22;;;;;;;10.30;8.95;;;24.20;81.40;;;;;;6217132;23;20004;-81
2021/07/11 12:27:59;;;;;;;10.18;9.05;;;24.20;81.10;;;;;;6192070;23;20012;-82
2021/07/11 12:30:25;;;;;;;8.02;7.13;;;24.20;80.10;;;;;;6216689;23;20003;-82
2021/07/11 12:32:53;;;;;;;8.77;7.47;;;24.20;80.40;;;;;;6217134;22;20035;-82
2021/07/11 12:35:26;;;;;;;8.85;7.10;;;24.20;80.50;;;;;;6216495;23;20004;-82
2021/07/11 12:37:52;;;;;;;8.73;6.32;;;24.30;80.70;;;;;;6244028;23;20011;-82
2021/07/11 12:40:22;;;;;;;8.68;7.38;;;24.30;80.90;;;;;;6216701;23;20020;-83
2021/07/11 12:42:58;;;;;;;8.40;7.22;;;24.30;81.00;;;;;;6192311;23;20337;-83
2021/07/11 12:45:24;;;;;;;8.45;7.05;;;24.30;81.10;;;;;;6216090;23;20004;-84